sensor_id;sensor_type;location;lat;lon;timestamp;P1;durP1;ratioP1;P2;durP2;ratioP2
82773;SDS011;72508;45.118;20.728;2024-03-29T00:08:18;5.40;;;2.70;;
82773;SDS011;72508;45.118;20.728;2024-03-29T00:18:20;3.55;;;3.35;;
82773;SDS011;72508;45.118;20.728;2024-03-29T00:28:21;3.38;;;2.67;;
82773;SDS011;72508;45.118;20.728;2024-03-29T00:38:23;4.38;;;2.58;;
82773;SDS011;72508;45.118;20.728;2024-03-29T00:48:24;2.67;;;2.53;;
82773;SDS011;72508;45.118;20.728;2024-03-29T00:58:25;2.90;;;2.50;;
82773;SDS011;72508;45.118;20.728;2024-03-29T01:08:27;4.43;;;2.42;;
82773;SDS011;72508;45.118;20.728;2024-03-29T01:18:28;3.45;;;3.15;;
82773;SDS011;72508;45.118;20.728;2024-03-29T01:28:30;2.65;;;2.45;;
82773;SDS011;72508;45.118;20.728;2024-03-29T01:38:31;4.07;;;2.05;;
82773;SDS011;72508;45.118;20.728;2024-03-29T01:48:33;1.90;;;1.75;;
82773;SDS011;72508;45.118;20.728;2024-03-29T01:58:35;3.85;;;2.30;;
82773;SDS011;72508;45.118;20.728;2024-03-29T02:08:36;3.60;;;2.72;;
82773;SDS011;72508;45.118;20.728;2024-03-29T02:18:38;1.48;;;1.25;;
82773;SDS011;72508;45.118;20.728;2024-03-29T02:28:39;2.33;;;2.22;;
82773;SDS011;72508;45.118;20.728;2024-03-29T02:38:41;1.75;;;1.65;;
82773;SDS011;72508;45.118;20.728;2024-03-29T02:48:42;2.17;;;2.08;;
82773;SDS011;72508;45.118;20.728;2024-03-29T02:58:44;1.88;;;1.83;;
82773;SDS011;72508;45.118;20.728;2024-03-29T03:08:45;2.47;;;1.60;;
82773;SDS011;72508;45.118;20.728;2024-03-29T03:19:05;2.70;;;2.50;;
82773;SDS011;72508;45.118;20.728;2024-03-29T03:29:06;2.22;;;2.13;;
82773;SDS011;72508;45.118;20.728;2024-03-29T03:39:10;2.05;;;1.95;;
82773;SDS011;72508;45.118;20.728;2024-03-29T03:49:11;2.40;;;2.17;;
82773;SDS011;72508;45.118;20.728;2024-03-29T03:59:14;1.48;;;1.48;;
82773;SDS011;72508;45.118;20.728;2024-03-29T04:09:16;4.13;;;3.92;;
82773;SDS011;72508;45.118;20.728;2024-03-29T04:19:17;2.30;;;0.35;;
82773;SDS011;72508;45.118;20.728;2024-03-29T04:29:19;2.15;;;2.03;;
82773;SDS011;72508;45.118;20.728;2024-03-29T04:39:20;1.65;;;1.55;;
82773;SDS011;72508;45.118;20.728;2024-03-29T04:49:22;2.45;;;1.70;;
82773;SDS011;72508;45.118;20.728;2024-03-29T04:59:31;1.27;;;1.27;;
82773;SDS011;72508;45.118;20.728;2024-03-29T05:09:33;2.63;;;2.53;;
82773;SDS011;72508;45.118;20.728;2024-03-29T05:19:36;2.28;;;2.17;;
82773;SDS011;72508;45.118;20.728;2024-03-29T05:29:37;3.30;;;3.13;;
82773;SDS011;72508;45.118;20.728;2024-03-29T05:39:39;1.65;;;1.55;;
82773;SDS011;72508;45.118;20.728;2024-03-29T05:49:40;2.10;;;2.00;;
82773;SDS011;72508;45.118;20.728;2024-03-29T05:59:42;2.10;;;1.52;;
82773;SDS011;72508;45.118;20.728;2024-03-29T06:09:43;2.72;;;2.63;;
82773;SDS011;72508;45.118;20.728;2024-03-29T06:19:45;1.92;;;1.83;;
82773;SDS011;72508;45.118;20.728;2024-03-29T06:29:46;2.05;;;1.95;;
82773;SDS011;72508;45.118;20.728;2024-03-29T06:39:48;2.88;;;2.72;;
82773;SDS011;72508;45.118;20.728;2024-03-29T06:49:50;0.35;;;0.22;;
82773;SDS011;72508;45.118;20.728;2024-03-29T06:59:53;1.10;;;1.10;;
82773;SDS011;72508;45.118;20.728;2024-03-29T07:09:54;1.85;;;1.85;;
82773;SDS011;72508;45.118;20.728;2024-03-29T07:19:56;2.75;;;2.65;;
82773;SDS011;72508;45.118;20.728;2024-03-29T07:29:57;4.55;;;4.15;;
82773;SDS011;72508;45.118;20.728;2024-03-29T07:40:00;4.38;;;4.13;;
82773;SDS011;72508;45.118;20.728;2024-03-29T07:50:02;2.53;;;2.33;;
82773;SDS011;72508;45.118;20.728;2024-03-29T08:00:04;1.95;;;1.85;;
82773;SDS011;72508;45.118;20.728;2024-03-29T08:10:07;2.30;;;1.75;;
82773;SDS011;72508;45.118;20.728;2024-03-29T08:20:09;2.58;;;2.38;;
82773;SDS011;72508;45.118;20.728;2024-03-29T08:30:12;4.03;;;2.92;;
82773;SDS011;72508;45.118;20.728;2024-03-29T08:40:13;4.47;;;4.22;;
82773;SDS011;72508;45.118;20.728;2024-03-29T08:50:15;3.40;;;3.13;;
82773;SDS011;72508;45.118;20.728;2024-03-29T09:00:16;4.68;;;3.17;;
82773;SDS011;72508;45.118;20.728;2024-03-29T09:10:18;4.97;;;4.35;;
82773;SDS011;72508;45.118;20.728;2024-03-29T09:20:20;4.45;;;3.60;;
82773;SDS011;72508;45.118;20.728;2024-03-29T09:30:21;3.85;;;3.00;;
82773;SDS011;72508;45.118;20.728;2024-03-29T09:40:23;3.78;;;3.00;;
82773;SDS011;72508;45.118;20.728;2024-03-29T09:50:24;5.28;;;3.80;;
82773;SDS011;72508;45.118;20.728;2024-03-29T10:00:26;4.35;;;2.38;;
82773;SDS011;72508;45.118;20.728;2024-03-29T10:10:28;5.03;;;3.00;;
82773;SDS011;72508;45.118;20.728;2024-03-29T10:20:30;4.22;;;3.70;;
82773;SDS011;72508;45.118;20.728;2024-03-29T10:30:32;4.22;;;3.20;;
82773;SDS011;72508;45.118;20.728;2024-03-29T10:40:35;6.95;;;4.07;;
82773;SDS011;72508;45.118;20.728;2024-03-29T10:50:39;5.78;;;5.05;;
82773;SDS011;72508;45.118;20.728;2024-03-29T11:00:44;4.95;;;4.35;;
82773;SDS011;72508;45.118;20.728;2024-03-29T11:10:52;4.53;;;4.07;;
82773;SDS011;72508;45.118;20.728;2024-03-29T11:20:56;4.05;;;3.80;;
82773;SDS011;72508;45.118;20.728;2024-03-29T11:31:02;5.07;;;4.68;;
82773;SDS011;72508;45.118;20.728;2024-03-29T11:51:13;5.38;;;2.67;;
82773;SDS011;72508;45.118;20.728;2024-03-29T12:01:16;5.97;;;3.65;;
82773;SDS011;72508;45.118;20.728;2024-03-29T12:11:17;4.63;;;3.67;;
82773;SDS011;72508;45.118;20.728;2024-03-29T12:21:19;4.32;;;3.88;;
82773;SDS011;72508;45.118;20.728;2024-03-29T12:31:21;5.75;;;1.02;;
82773;SDS011;72508;45.118;20.728;2024-03-29T12:41:23;5.05;;;3.50;;
82773;SDS011;72508;45.118;20.728;2024-03-29T12:51:26;4.82;;;3.33;;
82773;SDS011;72508;45.118;20.728;2024-03-29T13:01:30;3.88;;;3.00;;
82773;SDS011;72508;45.118;20.728;2024-03-29T13:11:31;4.05;;;3.47;;
82773;SDS011;72508;45.118;20.728;2024-03-29T13:21:33;3.15;;;2.30;;
82773;SDS011;72508;45.118;20.728;2024-03-29T13:31:35;3.70;;;2.78;;
82773;SDS011;72508;45.118;20.728;2024-03-29T13:41:36;4.18;;;2.42;;
82773;SDS011;72508;45.118;20.728;2024-03-29T13:51:38;3.72;;;2.95;;
82773;SDS011;72508;45.118;20.728;2024-03-29T14:01:39;5.65;;;5.22;;
82773;SDS011;72508;45.118;20.728;2024-03-29T14:11:40;3.78;;;3.30;;
82773;SDS011;72508;45.118;20.728;2024-03-29T14:21:44;4.60;;;3.58;;
82773;SDS011;72508;45.118;20.728;2024-03-29T14:31:46;4.25;;;2.50;;
82773;SDS011;72508;45.118;20.728;2024-03-29T14:41:48;3.85;;;2.97;;
82773;SDS011;72508;45.118;20.728;2024-03-29T14:51:51;4.30;;;3.35;;
82773;SDS011;72508;45.118;20.728;2024-03-29T15:01:53;5.05;;;4.07;;
82773;SDS011;72508;45.118;20.728;2024-03-29T15:11:54;4.68;;;2.45;;
82773;SDS011;72508;45.118;20.728;2024-03-29T15:21:55;8.30;;;4.53;;
82773;SDS011;72508;45.118;20.728;2024-03-29T15:31:57;6.35;;;4.05;;
82773;SDS011;72508;45.118;20.728;2024-03-29T15:41:58;3.67;;;3.17;;
82773;SDS011;72508;45.118;20.728;2024-03-29T15:52:00;5.60;;;4.85;;
82773;SDS011;72508;45.118;20.728;2024-03-29T16:02:01;5.72;;;4.05;;
82773;SDS011;72508;45.118;20.728;2024-03-29T16:12:04;9.55;;;6.75;;
82773;SDS011;72508;45.118;20.728;2024-03-29T16:22:06;11.68;;;7.47;;
82773;SDS011;72508;45.118;20.728;2024-03-29T16:32:07;17.80;;;8.77;;
82773;SDS011;72508;45.118;20.728;2024-03-29T16:42:10;19.67;;;9.50;;
82773;SDS011;72508;45.118;20.728;2024-03-29T16:52:11;22.38;;;9.40;;
82773;SDS011;72508;45.118;20.728;2024-03-29T17:02:13;8.50;;;5.35;;
82773;SDS011;72508;45.118;20.728;2024-03-29T17:12:15;11.85;;;5.32;;
82773;SDS011;72508;45.118;20.728;2024-03-29T17:22:20;29.08;;;12.02;;
82773;SDS011;72508;45.118;20.728;2024-03-29T17:32:27;16.48;;;9.07;;
82773;SDS011;72508;45.118;20.728;2024-03-29T17:42:28;19.50;;;10.55;;
82773;SDS011;72508;45.118;20.728;2024-03-29T17:52:30;20.40;;;12.30;;
82773;SDS011;72508;45.118;20.728;2024-03-29T18:02:31;11.02;;;5.90;;
82773;SDS011;72508;45.118;20.728;2024-03-29T18:12:33;27.00;;;15.57;;
82773;SDS011;72508;45.118;20.728;2024-03-29T18:22:35;7.60;;;5.35;;
82773;SDS011;72508;45.118;20.728;2024-03-29T18:32:37;5.70;;;4.20;;
82773;SDS011;72508;45.118;20.728;2024-03-29T18:42:39;4.60;;;3.92;;
82773;SDS011;72508;45.118;20.728;2024-03-29T18:52:41;9.82;;;5.90;;
82773;SDS011;72508;45.118;20.728;2024-03-29T19:02:43;20.27;;;7.43;;
82773;SDS011;72508;45.118;20.728;2024-03-29T19:12:45;8.35;;;5.32;;
82773;SDS011;72508;45.118;20.728;2024-03-29T19:22:47;10.30;;;5.22;;
82773;SDS011;72508;45.118;20.728;2024-03-29T19:32:57;9.07;;;6.93;;
82773;SDS011;72508;45.118;20.728;2024-03-29T19:42:59;10.55;;;6.35;;
82773;SDS011;72508;45.118;20.728;2024-03-29T19:53:01;10.18;;;6.18;;
82773;SDS011;72508;45.118;20.728;2024-03-29T20:03:03;10.55;;;4.15;;
82773;SDS011;72508;45.118;20.728;2024-03-29T20:13:06;15.38;;;8.30;;
82773;SDS011;72508;45.118;20.728;2024-03-29T20:23:08;16.38;;;9.05;;
82773;SDS011;72508;45.118;20.728;2024-03-29T20:33:10;14.95;;;9.23;;
82773;SDS011;72508;45.118;20.728;2024-03-29T20:43:11;14.20;;;8.30;;
82773;SDS011;72508;45.118;20.728;2024-03-29T20:53:13;15.55;;;9.98;;
82773;SDS011;72508;45.118;20.728;2024-03-29T21:03:15;8.95;;;6.57;;
82773;SDS011;72508;45.118;20.728;2024-03-29T21:13:36;9.13;;;5.45;;
82773;SDS011;72508;45.118;20.728;2024-03-29T21:23:41;9.27;;;5.30;;
82773;SDS011;72508;45.118;20.728;2024-03-29T21:33:43;7.82;;;4.68;;
82773;SDS011;72508;45.118;20.728;2024-03-29T21:43:45;12.48;;;6.22;;
82773;SDS011;72508;45.118;20.728;2024-03-29T21:53:48;13.77;;;6.97;;
82773;SDS011;72508;45.118;20.728;2024-03-29T22:03:50;14.23;;;5.47;;
82773;SDS011;72508;45.118;20.728;2024-03-29T22:13:52;9.30;;;4.32;;
82773;SDS011;72508;45.118;20.728;2024-03-29T22:23:53;8.77;;;6.28;;
82773;SDS011;72508;45.118;20.728;2024-03-29T22:33:55;5.13;;;2.08;;
82773;SDS011;72508;45.118;20.728;2024-03-29T22:43:57;8.95;;;5.70;;
82773;SDS011;72508;45.118;20.728;2024-03-29T22:53:58;9.85;;;5.90;;
82773;SDS011;72508;45.118;20.728;2024-03-29T23:04:00;13.55;;;7.43;;
82773;SDS011;72508;45.118;20.728;2024-03-29T23:14:02;12.20;;;6.13;;
82773;SDS011;72508;45.118;20.728;2024-03-29T23:24:03;8.93;;;6.32;;
82773;SDS011;72508;45.118;20.728;2024-03-29T23:34:06;10.40;;;5.75;;
82773;SDS011;72508;45.118;20.728;2024-03-29T23:44:08;8.68;;;5.88;;
82773;SDS011;72508;45.118;20.728;2024-03-29T23:54:11;9.77;;;5.03;;
